Briefing drone pour La charite-sur-loire

Rechercher une autre localisation

Conditions de vol :


Nous sommes le : Jeudi 17 juin 2021
Il est 20:50 UTC (22:50 LT)

Lever de soleil : 03:25 UTC (05:25 LT)
Coucher de soleil : 20:12 UTC (22:12 LT)

Météo

L'essentiel des conditions de vol

VIGILANCE MÉTÉO FRANCE - Nièvre (58)
Vigilance Orange : Orages
METAR de LFQG
LFQG 171800Z AUTO 23003KT 200V270 CAVOK 24/20 Q1012

Date d'émission: 17/06/2021
Heure d'émission: 18:00 UTC
Vent: 230° (variable du 200° au 270°) pour 3 KT (6 km/h)
Visibilité horizontale: > 10 km
Plafond : Plafond et visibilité OK (CAVOK)
Température: 24 °C
Point de rosée: 20 °C
Humidité: 78%
Pression (QNH): 1012 hPa
Prévision 24h pour Nevers (15 km)
Vent : 290° pour 3 KT (9 km/h)
Temperature Maxi: 26 °C
Temperature Min: 26 °C
Humidité : 52%
Condition : Couvert



Warning: count(): Parameter must be an array or an object that implements Countable in /homepages/6/d509196549/htdocs/droneoxygene/briefing.php on line 743
WEBCAM POUR LA CHARITE-SUR-LOIRE

Réglementation

Voler en sécurité

CARTES AERONAUTIQUE 1/500.000
CARTES VAC (LFQG)
SUP AIP




Chargement des AIP...
NOTAM (LA CHARITE-SUR-LOIRE + Terrain à proximité / FIR )




Chargement des NOTAMS...
CONTACT PREFECTURE 58


Avertissement : Les données mises à disposition sont indicatives. Oxygène Drone ne pourra être tenu responsable de dégâts causés aux biens et aux personnes.